Estación Meteorológica Peña el Pijo (Robertgarden) [ 12/14/19 08:42:02 CET ]

Fecha Hora Presion(HPa) Temp (°C) Humedad % Rocio (°C) Viento ( m/s) Direccion Lluvia 1Hora(mm) Lluvia 24H(mm) LLuvia Total(mm)
2019-Oct-04 01:01:51 1012.200 10.6 68 4.9         490.25
2019-Oct-04 02:01:38 1011.800 10.9 68 5.2         490.25
2019-Oct-04 03:01:48 1011.800 10.9 66 4.8         490.25
2019-Oct-04 04:01:53 1011.100 10.3 69 4.9         490.25
2019-Oct-04 05:01:49 1011.200 9.7 70 4.5         490.25
2019-Oct-04 06:01:46 1011.400 9.8 71 4.8         490.25
2019-Oct-04 07:01:52 1011.400 8.9 72 4.1         490.25
2019-Oct-04 08:01:43 1011.800 7.9 74 3.6         490.25
2019-Oct-04 09:01:46 1011.900 7.4 76 3.4         490.25
2019-Oct-04 10:01:42 1011.800 14.3 68 8.4         490.25
2019-Oct-04 11:02:19 1011.700 18.9 52 8.8         490.25
2019-Oct-04 12:01:46 1011.300 24.6 39 9.7         490.25
2019-Oct-04 13:01:46 1010.900 27.9 28 7.6         490.25
2019-Oct-04 14:01:46 1010.500 29.2 26 7.5         490.25
2019-Oct-04 15:01:56 1009.800 29.9 25 7.5         490.25
2019-Oct-04 16:01:54 1009.100 31.5 21 6.5         490.25
2019-Oct-04 17:01:46 1008.800 30.5 22 6.2         490.25
2019-Oct-04 18:01:44 1008.700 29.6 25 7.3         490.25
2019-Oct-04 19:01:42 1008.700 25.3 30 6.5         490.25
2019-Oct-04 20:01:38 1009.200 19.9 43 6.9         490.25
2019-Oct-04 21:01:40 1010.200 15.9 53 6.3         490.25
2019-Oct-04 22:01:50 1010.400 13.8 59 5.9         490.25
2019-Oct-04 23:01:42 1010.300 11.4 66 5.2         490.25

Temperatura Máxima:31°    Temperatura Mínima:
Presión Máxima:1012.200 Hpa    Presión Mínima:1008.700 Hpa


Volver